createdAt,value
2023-05-12T00:02:13.438Z,16.46
2023-05-12T00:04:40.608Z,16.77
2023-05-12T00:07:07.484Z,16.91
2023-05-12T00:09:34.043Z,16.47
2023-05-12T00:12:00.502Z,16.61
2023-05-12T00:14:26.982Z,16.43
2023-05-12T00:16:53.534Z,16.67
2023-05-12T00:19:21.141Z,16.29
2023-05-12T00:21:47.785Z,16.74
2023-05-12T00:24:14.732Z,16.48
2023-05-12T00:26:41.509Z,16.49
2023-05-12T00:29:08.090Z,16.69
2023-05-12T00:31:34.589Z,16.70
2023-05-12T00:34:01.376Z,16.40
2023-05-12T00:36:28.114Z,16.24
2023-05-12T00:38:54.671Z,16.44
2023-05-12T00:41:21.183Z,16.29
2023-05-12T00:43:47.698Z,16.66
2023-05-12T00:46:14.361Z,16.52
2023-05-12T00:48:40.952Z,16.43
2023-05-12T00:51:07.551Z,16.21
2023-05-12T00:53:45.394Z,16.15
2023-05-12T00:56:17.863Z,16.35
2023-05-12T00:58:44.612Z,16.16
2023-05-12T01:01:11.210Z,16.40
2023-05-12T01:03:37.785Z,16.47
2023-05-12T01:06:13.784Z,16.54
2023-05-12T01:08:41.538Z,16.34
2023-05-12T01:11:08.030Z,16.23
2023-05-12T01:13:34.549Z,16.26
2023-05-12T01:16:02.657Z,16.10
2023-05-12T01:18:29.714Z,16.22
2023-05-12T01:20:56.817Z,16.23
2023-05-12T01:23:27.976Z,16.39
2023-05-12T01:25:55.123Z,16.32
2023-05-12T01:28:21.702Z,16.23
2023-05-12T01:30:48.816Z,16.47
2023-05-12T01:33:15.545Z,16.39
2023-05-12T01:35:42.150Z,16.14
2023-05-12T01:38:08.838Z,16.44
2023-05-12T01:40:35.401Z,16.38
2023-05-12T01:43:01.862Z,16.35
2023-05-12T01:45:28.398Z,16.61
2023-05-12T01:47:54.955Z,16.45
2023-05-12T01:50:22.244Z,16.31
2023-05-12T01:52:48.802Z,16.33
2023-05-12T01:55:16.320Z,16.10
2023-05-12T01:57:42.803Z,16.44
2023-05-12T02:00:09.909Z,16.18
2023-05-12T02:02:36.398Z,16.62
2023-05-12T02:05:02.981Z,16.76
2023-05-12T02:07:29.449Z,16.79
2023-05-12T02:09:55.926Z,16.44
2023-05-12T02:12:22.481Z,16.56
2023-05-12T02:14:48.958Z,16.36
2023-05-12T02:17:15.451Z,16.68
2023-05-12T02:19:41.997Z,16.45
2023-05-12T02:22:08.782Z,16.71
2023-05-12T02:24:35.262Z,16.52
2023-05-12T02:27:01.780Z,16.16
2023-05-12T02:29:28.244Z,16.35
2023-05-12T02:31:54.736Z,16.19
2023-05-12T02:34:21.181Z,16.38
2023-05-12T02:36:47.635Z,16.49
2023-05-12T02:39:14.139Z,16.47
2023-05-12T02:41:40.682Z,16.76
2023-05-12T02:44:07.427Z,16.40
2023-05-12T02:46:34.253Z,16.68
2023-05-12T02:49:00.703Z,16.82
2023-05-12T02:51:27.166Z,16.65
2023-05-12T02:53:53.603Z,16.73
2023-05-12T02:56:20.856Z,17.03
2023-05-12T02:58:47.313Z,16.92
2023-05-12T03:01:14.082Z,16.75
2023-05-12T03:03:41.302Z,16.91
2023-05-12T03:06:08.182Z,16.75
2023-05-12T03:08:34.718Z,16.89
2023-05-12T03:11:01.215Z,16.76
2023-05-12T03:13:27.669Z,16.88
2023-05-12T03:15:54.513Z,16.66
2023-05-12T03:18:21.158Z,16.82
2023-05-12T03:20:47.800Z,16.69
2023-05-12T03:23:14.275Z,16.76
2023-05-12T03:25:40.738Z,16.54
2023-05-12T03:28:07.213Z,16.51
2023-05-12T03:30:33.735Z,16.52
2023-05-12T03:33:00.305Z,16.45
2023-05-12T03:35:27.037Z,16.28
2023-05-12T03:37:53.578Z,16.26
2023-05-12T03:40:20.308Z,16.05
2023-05-12T03:42:47.103Z,16.42
2023-05-12T03:45:13.603Z,16.37
2023-05-12T03:47:40.712Z,16.68
2023-05-12T03:50:08.117Z,16.49
2023-05-12T03:52:34.783Z,16.41
2023-05-12T03:55:01.220Z,16.74
2023-05-12T03:57:27.663Z,16.69
2023-05-12T03:59:54.082Z,16.54
2023-05-12T04:02:20.728Z,16.67
2023-05-12T04:04:47.273Z,16.66
2023-05-12T04:07:13.738Z,16.85
2023-05-12T04:09:40.280Z,16.83
2023-05-12T04:12:06.942Z,16.87
2023-05-12T04:14:42.172Z,16.95
2023-05-12T04:17:09.537Z,16.86
2023-05-12T04:19:36.007Z,16.76
2023-05-12T04:22:02.508Z,16.84
2023-05-12T04:24:28.971Z,16.94
2023-05-12T04:26:57.528Z,16.73
2023-05-12T04:29:23.978Z,16.84
2023-05-12T04:31:50.541Z,16.83
2023-05-12T04:34:17.047Z,16.68
2023-05-12T04:36:43.520Z,16.78
2023-05-12T04:39:10.084Z,16.95
2023-05-12T04:41:36.627Z,17.06
2023-05-12T04:44:03.108Z,16.87
2023-05-12T04:46:29.699Z,17.08
2023-05-12T04:48:56.559Z,17.09
2023-05-12T04:51:23.070Z,17.12
2023-05-12T04:53:49.534Z,17.10
2023-05-12T04:56:16.059Z,17.42
2023-05-12T04:58:42.500Z,17.26
2023-05-12T05:01:09.023Z,17.44
2023-05-12T05:03:35.684Z,17.32
2023-05-12T05:06:02.167Z,17.62
2023-05-12T05:08:28.639Z,17.44
2023-05-12T05:10:55.122Z,17.55
2023-05-12T05:13:21.624Z,17.53
2023-05-12T05:15:55.575Z,17.07
2023-05-12T05:18:24.219Z,17.23
2023-05-12T05:20:57.724Z,17.19
2023-05-12T05:23:26.009Z,17.54
2023-05-12T05:25:52.682Z,17.47
2023-05-12T05:28:19.161Z,17.88
2023-05-12T05:30:48.563Z,17.82
2023-05-12T05:33:15.115Z,17.73
2023-05-12T05:35:42.539Z,18.06
2023-05-12T05:38:09.098Z,18.04
2023-05-12T05:40:48.856Z,18.06
2023-05-12T05:43:18.486Z,18.33
2023-05-12T05:45:44.985Z,18.21
2023-05-12T05:48:11.528Z,18.39
2023-05-12T05:50:38.065Z,18.19
2023-05-12T05:53:04.557Z,18.48
2023-05-12T05:55:30.990Z,18.67
2023-05-12T05:57:57.590Z,19.03
2023-05-12T06:00:24.138Z,19.06
2023-05-12T06:02:50.888Z,19.62
2023-05-12T06:05:18.198Z,19.39
2023-05-12T06:07:44.805Z,20.08
2023-05-12T06:10:11.764Z,19.89
2023-05-12T06:12:38.224Z,19.97
2023-05-12T06:15:06.509Z,19.66
2023-05-12T06:17:33.214Z,18.89
2023-05-12T06:19:59.679Z,19.52
2023-05-12T06:22:26.479Z,20.00
2023-05-12T06:24:52.967Z,20.29
2023-05-12T06:27:20.779Z,20.60
2023-05-12T06:29:47.380Z,20.31
2023-05-12T06:32:17.374Z,20.67
2023-05-12T06:34:44.586Z,20.02
2023-05-12T06:37:11.407Z,19.93
2023-05-12T06:39:37.934Z,20.25
2023-05-12T06:42:04.591Z,19.64
2023-05-12T06:44:31.508Z,19.44
2023-05-12T06:46:58.026Z,19.48
2023-05-12T06:49:24.522Z,19.38
2023-05-12T06:51:51.040Z,19.03
2023-05-12T06:54:17.591Z,18.80
2023-05-12T06:56:44.129Z,18.53
2023-05-12T06:59:11.039Z,18.54
2023-05-12T07:01:37.529Z,18.68
2023-05-12T07:04:04.341Z,18.95
2023-05-12T07:06:32.153Z,18.95
2023-05-12T07:08:58.629Z,18.65
2023-05-12T07:11:25.065Z,19.32
2023-05-12T07:13:52.105Z,19.34
2023-05-12T07:16:19.624Z,19.41
2023-05-12T07:18:46.310Z,19.38
2023-05-12T07:21:13.264Z,19.30
2023-05-12T07:23:40.194Z,19.28
2023-05-12T07:26:07.283Z,19.61
2023-05-12T07:28:38.383Z,19.67
2023-05-12T07:31:05.823Z,19.57
2023-05-12T07:33:32.387Z,19.79
2023-05-12T07:35:59.004Z,19.55
2023-05-12T07:38:25.455Z,19.48
2023-05-12T07:40:51.925Z,19.88
2023-05-12T07:43:18.511Z,19.95
2023-05-12T07:45:46.063Z,20.50
2023-05-12T07:48:13.005Z,20.22
2023-05-12T07:50:39.964Z,20.28
2023-05-12T07:53:06.890Z,20.39
2023-05-12T07:55:33.695Z,20.60
2023-05-12T07:58:00.563Z,20.96
2023-05-12T08:00:27.189Z,21.22
2023-05-12T08:02:54.144Z,22.29
2023-05-12T08:05:21.350Z,22.72
2023-05-12T08:07:48.038Z,22.93
2023-05-12T08:10:14.523Z,23.59
2023-05-12T08:12:41.722Z,23.99
2023-05-12T08:15:09.383Z,23.80
2023-05-12T08:17:36.260Z,24.09
2023-05-12T08:20:04.505Z,23.31
2023-05-12T08:22:31.493Z,23.03
2023-05-12T08:24:58.039Z,23.45
2023-05-12T08:27:24.542Z,23.25
2023-05-12T08:29:51.128Z,24.06
2023-05-12T08:32:17.668Z,23.99
2023-05-12T08:34:44.159Z,23.48
2023-05-12T08:37:11.540Z,24.02
2023-05-12T08:39:38.228Z,24.74
2023-05-12T08:42:18.961Z,24.36
2023-05-12T08:44:45.750Z,24.44
2023-05-12T08:47:12.676Z,24.93
2023-05-12T08:49:40.170Z,24.53
2023-05-12T08:52:08.061Z,24.45
2023-05-12T08:54:42.447Z,25.38
2023-05-12T08:57:16.206Z,25.77
2023-05-12T08:59:44.190Z,25.61
2023-05-12T09:02:11.386Z,24.27
2023-05-12T09:04:39.356Z,24.19
2023-05-12T09:07:08.776Z,24.71
2023-05-12T09:09:36.389Z,24.04
2023-05-12T09:12:03.449Z,24.76
2023-05-12T09:14:31.422Z,25.03
2023-05-12T09:17:03.053Z,24.91
2023-05-12T09:19:29.978Z,24.62
2023-05-12T09:21:56.845Z,24.21
2023-05-12T09:24:34.307Z,25.00
2023-05-12T09:27:01.192Z,23.98
2023-05-12T09:29:31.872Z,24.84
2023-05-12T09:32:02.238Z,24.70
2023-05-12T09:34:37.019Z,25.18
2023-05-12T09:37:05.431Z,24.78
2023-05-12T09:39:32.389Z,24.53
2023-05-12T09:41:58.933Z,25.04
2023-05-12T09:44:26.034Z,25.80
2023-05-12T09:46:52.964Z,25.36
2023-05-12T09:49:27.138Z,25.14
2023-05-12T09:51:56.303Z,25.67
2023-05-12T09:54:30.305Z,25.74
2023-05-12T09:57:01.697Z,26.48
2023-05-12T09:59:36.068Z,26.10
2023-05-12T10:02:06.267Z,26.97
2023-05-12T10:04:39.451Z,26.74
2023-05-12T10:07:09.124Z,25.11
2023-05-12T10:09:39.348Z,26.27
2023-05-12T10:12:06.483Z,26.02
2023-05-12T10:14:33.530Z,26.04
2023-05-12T10:17:00.026Z,26.52
2023-05-12T10:19:26.989Z,26.42
2023-05-12T10:21:53.611Z,26.11
2023-05-12T10:24:21.118Z,26.19
2023-05-12T10:26:47.589Z,26.13
2023-05-12T10:29:14.283Z,25.93
2023-05-12T10:31:41.324Z,25.77
2023-05-12T10:34:07.963Z,25.95
2023-05-12T10:36:49.315Z,26.04
2023-05-12T10:39:16.010Z,26.45
2023-05-12T10:41:42.853Z,25.62
2023-05-12T10:44:10.878Z,26.21
2023-05-12T10:46:37.562Z,26.80
2023-05-12T10:49:07.677Z,26.32
2023-05-12T10:51:38.196Z,27.67
2023-05-12T10:54:07.122Z,26.71
2023-05-12T10:56:40.018Z,27.01
2023-05-12T10:59:12.985Z,26.38
2023-05-12T11:01:41.785Z,26.75
2023-05-12T11:04:16.576Z,25.44
2023-05-12T11:06:45.118Z,26.60
2023-05-12T11:09:13.324Z,26.07
2023-05-12T11:11:40.549Z,26.34
2023-05-12T11:14:08.293Z,26.11
2023-05-12T11:16:34.901Z,24.74
2023-05-12T11:19:05.381Z,25.48
2023-05-12T11:21:33.143Z,26.59
2023-05-12T11:24:00.737Z,25.79
2023-05-12T11:26:28.084Z,25.28
2023-05-12T11:28:55.050Z,26.74
2023-05-12T11:31:22.589Z,25.98
2023-05-12T11:33:55.957Z,25.72
2023-05-12T11:36:28.592Z,26.49
2023-05-12T11:38:55.092Z,25.66
2023-05-12T11:41:24.027Z,25.83
2023-05-12T11:43:50.598Z,26.02
2023-05-12T11:46:27.265Z,25.73
2023-05-12T11:48:58.209Z,25.69
2023-05-12T11:51:25.566Z,25.69
2023-05-12T11:53:53.126Z,25.42
2023-05-12T11:56:24.590Z,24.70
2023-05-12T11:58:56.342Z,25.52
2023-05-12T12:01:23.819Z,25.40
2023-05-12T12:03:52.434Z,25.18
2023-05-12T12:06:20.782Z,25.81
2023-05-12T12:08:51.332Z,26.69
2023-05-12T12:11:19.158Z,25.67
2023-05-12T12:13:56.757Z,23.89
2023-05-12T12:16:27.765Z,24.74
2023-05-12T12:18:55.069Z,24.53
2023-05-12T12:21:24.700Z,24.51
2023-05-12T12:23:52.027Z,25.05
2023-05-12T12:26:21.548Z,24.88
2023-05-12T12:28:51.736Z,25.72
2023-05-12T12:31:18.726Z,25.46
2023-05-12T12:33:45.319Z,25.91
2023-05-12T12:36:11.784Z,26.33
2023-05-12T12:38:38.274Z,25.23
2023-05-12T12:41:05.277Z,26.30
2023-05-12T12:43:32.348Z,25.96
2023-05-12T12:45:58.838Z,25.93
2023-05-12T12:48:26.758Z,26.46
2023-05-12T12:50:53.794Z,25.21
2023-05-12T12:53:20.281Z,25.91
2023-05-12T12:55:46.867Z,25.46
2023-05-12T12:58:13.347Z,25.22
2023-05-12T13:00:39.870Z,24.84
2023-05-12T13:03:08.234Z,25.78
2023-05-12T13:05:34.807Z,25.91
2023-05-12T13:08:01.436Z,25.50
2023-05-12T13:10:27.936Z,26.13
2023-05-12T13:12:54.511Z,25.67
2023-05-12T13:15:21.311Z,25.40
2023-05-12T13:17:48.061Z,25.55
2023-05-12T13:20:16.706Z,26.02
2023-05-12T13:22:43.664Z,25.95
2023-05-12T13:25:11.263Z,25.58
2023-05-12T13:27:38.655Z,26.08
2023-05-12T13:30:07.270Z,25.91
2023-05-12T13:32:34.509Z,25.62
2023-05-12T13:35:01.625Z,26.75
2023-05-12T13:37:28.306Z,26.53
2023-05-12T13:39:54.806Z,26.06
2023-05-12T13:42:22.425Z,26.12
2023-05-12T13:44:49.631Z,25.45
2023-05-12T13:47:19.400Z,25.98
2023-05-12T13:49:46.622Z,26.32
2023-05-12T13:52:21.349Z,24.94
2023-05-12T13:54:47.835Z,25.37
2023-05-12T13:57:14.322Z,25.58
2023-05-12T13:59:40.839Z,24.73
2023-05-12T14:02:11.978Z,24.78
2023-05-12T14:04:41.258Z,24.72
2023-05-12T14:07:08.724Z,24.62
2023-05-12T14:09:35.527Z,24.92
2023-05-12T14:12:02.521Z,24.50
2023-05-12T14:14:28.968Z,25.31
2023-05-12T14:16:55.712Z,23.93
2023-05-12T14:19:22.208Z,24.20
2023-05-12T14:21:49.117Z,24.53
2023-05-12T14:24:15.800Z,25.46
2023-05-12T14:26:42.309Z,24.45
2023-05-12T14:29:08.986Z,24.76
2023-05-12T14:31:35.600Z,24.88
2023-05-12T14:34:03.940Z,23.86
2023-05-12T14:36:30.821Z,23.37
2023-05-12T14:38:57.262Z,23.81
2023-05-12T14:41:24.411Z,23.14
2023-05-12T14:43:51.942Z,23.09
2023-05-12T14:46:18.506Z,23.11
2023-05-12T14:48:45.086Z,23.47
2023-05-12T14:51:11.587Z,22.86
2023-05-12T14:53:38.089Z,22.86
2023-05-12T14:56:04.863Z,22.77
2023-05-12T14:58:31.516Z,23.22
2023-05-12T15:00:59.360Z,22.72
2023-05-12T15:03:26.117Z,23.28
2023-05-12T15:06:05.726Z,23.15
2023-05-12T15:08:33.752Z,22.72
2023-05-12T15:11:00.227Z,22.57
2023-05-12T15:13:26.688Z,22.82
2023-05-12T15:15:55.298Z,22.98
2023-05-12T15:18:23.507Z,23.24
2023-05-12T15:20:50.097Z,23.47
2023-05-12T15:23:16.591Z,23.38
2023-05-12T15:25:43.090Z,23.40
2023-05-12T15:28:09.563Z,23.37
2023-05-12T15:30:36.173Z,23.11
2023-05-12T15:33:06.200Z,23.11
2023-05-12T15:35:32.873Z,22.98
2023-05-12T15:37:59.420Z,22.87
2023-05-12T15:40:26.085Z,23.04
2023-05-12T15:42:52.846Z,23.31
2023-05-12T15:45:19.527Z,23.20
2023-05-12T15:47:46.279Z,23.42
2023-05-12T15:50:12.753Z,22.82
2023-05-12T15:52:39.255Z,23.18
2023-05-12T15:55:05.875Z,22.85
2023-05-12T15:57:32.369Z,22.82
2023-05-12T15:59:59.689Z,22.16
2023-05-12T16:02:26.398Z,22.79
2023-05-12T16:04:52.910Z,22.53
2023-05-12T16:07:19.429Z,22.37
2023-05-12T16:09:45.881Z,22.60
2023-05-12T16:12:12.369Z,22.23
2023-05-12T16:14:38.858Z,22.48
2023-05-12T16:17:05.435Z,22.19
2023-05-12T16:19:32.001Z,22.63
2023-05-12T16:21:59.683Z,22.84
2023-05-12T16:24:28.638Z,22.62
2023-05-12T16:26:59.363Z,22.89
2023-05-12T16:29:25.912Z,22.27
2023-05-12T16:31:52.596Z,22.18
2023-05-12T16:34:19.655Z,22.76
2023-05-12T16:36:46.262Z,22.58
2023-05-12T16:39:13.079Z,22.72
2023-05-12T16:41:39.805Z,22.35
2023-05-12T16:44:07.724Z,22.66
2023-05-12T16:46:34.615Z,22.16
2023-05-12T16:49:01.659Z,22.60
2023-05-12T16:51:31.718Z,22.48
2023-05-12T16:53:59.005Z,22.27
2023-05-12T16:56:27.961Z,21.88
2023-05-12T16:58:56.143Z,21.41
2023-05-12T17:01:22.699Z,21.37
2023-05-12T17:03:50.156Z,21.74
2023-05-12T17:06:17.382Z,21.64
2023-05-12T17:08:47.967Z,21.43
2023-05-12T17:11:16.996Z,21.56
2023-05-12T17:13:48.682Z,21.20
2023-05-12T17:16:17.153Z,21.93
2023-05-12T17:21:20.578Z,21.43
2023-05-12T17:23:51.406Z,21.48
2023-05-12T17:26:18.768Z,21.34
2023-05-12T17:28:47.591Z,21.86
2023-05-12T17:31:26.213Z,21.36
2023-05-12T17:33:53.146Z,21.52
2023-05-12T17:36:20.161Z,21.24
2023-05-12T17:38:47.375Z,21.23
2023-05-12T17:41:14.629Z,21.43
2023-05-12T17:43:42.966Z,21.25
2023-05-12T17:46:10.368Z,21.19
2023-05-12T17:48:39.034Z,21.38
2023-05-12T17:51:09.780Z,20.88
2023-05-12T17:53:38.913Z,20.74
2023-05-12T17:56:06.416Z,20.86
2023-05-12T17:58:35.417Z,20.74
2023-05-12T18:01:03.614Z,21.18
2023-05-12T18:03:32.017Z,21.23
2023-05-12T18:06:00.186Z,21.00
2023-05-12T18:08:27.549Z,21.30
2023-05-12T18:10:54.686Z,20.96
2023-05-12T18:13:22.748Z,20.39
2023-05-12T18:15:51.077Z,20.23
2023-05-12T18:18:18.350Z,20.34
2023-05-12T18:20:44.907Z,20.34
2023-05-12T18:23:11.358Z,20.31
2023-05-12T18:25:37.939Z,20.05
2023-05-12T18:28:06.496Z,20.12
2023-05-12T18:30:33.196Z,19.90
2023-05-12T18:32:59.718Z,19.78
2023-05-12T18:35:27.139Z,19.94
2023-05-12T18:37:53.856Z,19.86
2023-05-12T18:40:20.347Z,19.51
2023-05-12T18:42:46.834Z,19.44
2023-05-12T18:45:13.418Z,19.43
2023-05-12T18:47:40.018Z,18.87
2023-05-12T18:50:07.710Z,18.85
2023-05-12T18:52:34.206Z,18.73
2023-05-12T18:55:00.782Z,18.59
2023-05-12T18:57:27.248Z,18.51
2023-05-12T18:59:53.835Z,18.33
2023-05-12T19:02:20.794Z,18.15
2023-05-12T19:04:47.336Z,18.15
2023-05-12T19:07:15.563Z,17.85
2023-05-12T19:09:43.060Z,17.81
2023-05-12T19:12:11.678Z,17.83
2023-05-12T19:14:39.468Z,17.81
2023-05-12T19:17:06.936Z,17.41
2023-05-12T19:19:33.519Z,17.68
2023-05-12T19:22:00.157Z,17.76
2023-05-12T19:24:27.062Z,17.32
2023-05-12T19:26:53.650Z,17.50
2023-05-12T19:29:20.346Z,17.44
2023-05-12T19:31:46.944Z,17.20
2023-05-12T19:34:13.629Z,17.00
2023-05-12T19:36:40.140Z,17.02
2023-05-12T19:39:06.615Z,17.07
2023-05-12T19:41:33.195Z,17.04
2023-05-12T19:43:59.743Z,16.71
2023-05-12T19:46:26.331Z,16.77
2023-05-12T19:48:52.878Z,16.56
2023-05-12T19:51:19.355Z,16.40
2023-05-12T19:53:45.844Z,16.09
2023-05-12T19:56:12.369Z,16.46
2023-05-12T19:58:38.868Z,16.38
2023-05-12T20:01:06.419Z,16.00
2023-05-12T20:03:33.117Z,16.21
2023-05-12T20:05:59.686Z,16.08
2023-05-12T20:08:26.229Z,15.97
2023-05-12T20:10:52.667Z,16.17
2023-05-12T20:13:19.135Z,15.84
2023-05-12T20:15:45.706Z,15.91
2023-05-12T20:18:14.633Z,15.62
2023-05-12T20:20:42.365Z,15.94
2023-05-12T20:23:09.005Z,15.70
2023-05-12T20:25:36.196Z,15.71
2023-05-12T20:28:03.050Z,15.80
2023-05-12T20:30:29.604Z,15.75
2023-05-12T20:32:56.264Z,15.97
2023-05-12T20:35:23.255Z,15.48
2023-05-12T20:37:50.399Z,15.46
2023-05-12T20:40:16.907Z,15.46
2023-05-12T20:42:45.871Z,15.52
2023-05-12T20:45:13.007Z,15.36
2023-05-12T20:47:39.709Z,15.41
2023-05-12T20:50:07.872Z,15.42
2023-05-12T20:52:36.913Z,15.61
2023-05-12T20:55:03.605Z,15.42
2023-05-12T20:57:30.263Z,15.52
2023-05-12T20:59:57.087Z,15.23
2023-05-12T21:02:27.648Z,14.98
2023-05-12T21:04:54.588Z,14.95
2023-05-12T21:07:21.119Z,15.17
2023-05-12T21:09:47.902Z,14.94
2023-05-12T21:12:14.490Z,15.15
2023-05-12T21:14:42.737Z,15.23
2023-05-12T21:17:10.200Z,14.89
2023-05-12T21:19:38.959Z,14.93
2023-05-12T21:22:06.985Z,14.92
2023-05-12T21:24:33.744Z,14.95
2023-05-12T21:27:04.581Z,15.00
2023-05-12T21:29:31.892Z,14.89
2023-05-12T21:31:58.459Z,14.88
2023-05-12T21:34:25.114Z,14.86
2023-05-12T21:36:51.849Z,14.77
2023-05-12T21:39:18.436Z,14.46
2023-05-12T21:41:44.912Z,14.46
2023-05-12T21:44:11.622Z,14.52
2023-05-12T21:46:38.303Z,14.79
2023-05-12T21:49:04.883Z,14.32
2023-05-12T21:51:33.161Z,14.52
2023-05-12T21:54:00.192Z,14.36
2023-05-12T21:56:26.844Z,14.35
2023-05-12T21:58:53.433Z,14.14
2023-05-12T22:01:19.961Z,14.03
2023-05-12T22:03:46.572Z,13.96
2023-05-12T22:06:13.061Z,13.69
2023-05-12T22:08:39.545Z,13.79
2023-05-12T22:11:06.050Z,14.06
2023-05-12T22:13:32.554Z,13.99
2023-05-12T22:16:00.001Z,13.84
2023-05-12T22:18:26.673Z,13.97
2023-05-12T22:20:53.212Z,13.71
2023-05-12T22:23:19.751Z,13.43
2023-05-12T22:25:46.198Z,13.61
2023-05-12T22:28:12.667Z,13.71
2023-05-12T22:30:39.141Z,13.32
2023-05-12T22:33:05.693Z,13.26
2023-05-12T22:35:32.242Z,13.61
2023-05-12T22:37:58.726Z,13.46
2023-05-12T22:40:27.004Z,13.27
2023-05-12T22:42:53.525Z,13.57
2023-05-12T22:45:20.072Z,13.61
2023-05-12T22:47:46.622Z,13.36
2023-05-12T22:50:13.332Z,13.38
2023-05-12T22:52:47.298Z,13.24
2023-05-12T22:55:13.771Z,13.31
2023-05-12T22:57:41.075Z,13.19
2023-05-12T23:00:08.223Z,13.18
2023-05-12T23:02:38.052Z,13.11
2023-05-12T23:05:04.936Z,13.01
2023-05-12T23:07:31.660Z,13.01
2023-05-12T23:09:58.219Z,12.96
2023-05-12T23:12:24.736Z,12.89
2023-05-12T23:14:51.212Z,12.78
2023-05-12T23:17:17.762Z,12.66
2023-05-12T23:19:44.727Z,13.04
2023-05-12T23:22:11.230Z,12.97
2023-05-12T23:24:38.215Z,12.58
2023-05-12T23:27:38.200Z,12.57
2023-05-12T23:30:05.865Z,12.57
2023-05-12T23:32:32.530Z,12.57
2023-05-12T23:34:59.081Z,12.58
2023-05-12T23:37:25.838Z,12.69
2023-05-12T23:39:52.323Z,12.59
2023-05-12T23:42:18.818Z,12.74
2023-05-12T23:44:45.254Z,12.72
2023-05-12T23:47:11.704Z,12.77
2023-05-12T23:49:38.213Z,12.65
2023-05-12T23:52:04.875Z,12.75
2023-05-12T23:54:31.400Z,12.81
2023-05-12T23:56:57.869Z,12.71
2023-05-12T23:59:24.361Z,12.78
